Time;durP1;ratioP1;P1;durP2;ratioP2;P2;SDS_P1;SDS_P2;PMS_P1;PMS_P2;Temp;Humidity;BMP_temperature;BMP_pressure;BME280_temperature;BME280_humidity;BME280_pressure;Samples;Min_cycle;Max_cycle;Signal;HPM_P1;HPM_P2
2022/03/22 00:03:39;;;;;;;38.00;18.70;;;;;;;2.48;43.40;100691.68;222487;1270;22556;-71
2022/03/22 00:08:42;;;;;;;37.00;19.30;;;;;;;2.48;43.44;100689.50;222415;1270;23687;-71
2022/03/22 00:13:44;;;;;;;37.30;19.50;;;;;;;2.42;43.56;100693.59;222401;1270;23130;-71
2022/03/22 00:18:47;;;;;;;36.10;18.40;;;;;;;2.31;43.76;100694.57;222496;1270;23726;-71
2022/03/22 00:23:49;;;;;;;38.20;18.40;;;;;;;2.23;44.16;100693.02;222667;1270;24334;-71
2022/03/22 00:28:52;;;;;;;34.10;18.40;;;;;;;2.22;43.87;100688.97;222611;1270;23644;-71
2022/03/22 00:34:07;;;;;;;34.90;18.00;;;;;;;2.26;43.88;100691.45;222540;1270;22690;-71
2022/03/22 00:39:23;;;;;;;41.60;19.20;;;;;;;2.33;43.74;100691.05;222634;1270;23379;-71
2022/03/22 00:44:29;;;;;;;39.20;19.70;;;;;;;2.38;43.78;100687.73;222474;1270;22481;-71
2022/03/22 00:49:33;;;;;;;37.80;18.80;;;;;;;2.39;43.67;100683.87;222802;1269;22478;-71
2022/03/22 00:54:36;;;;;;;38.10;19.30;;;;;;;2.41;43.92;100688.13;222699;1271;22536;-71
2022/03/22 01:05:00;;;;;;;34.70;18.80;;;;;;;2.11;43.91;100686.56;222617;1270;22595;-72
2022/03/22 01:10:06;;;;;;;35.50;19.00;;;;;;;1.98;44.10;100683.77;222548;1270;25026;-71
2022/03/22 01:15:15;;;;;;;41.60;19.90;;;;;;;1.86;44.10;100681.30;222613;1268;22489;-71
2022/03/22 01:20:20;;;;;;;38.30;19.20;;;;;;;1.76;44.43;100682.15;222981;1270;22488;-71
2022/03/22 01:25:27;;;;;;;38.00;19.00;;;;;;;1.67;44.47;100679.10;222560;1270;22666;-71
2022/03/22 01:30:32;;;;;;;40.40;19.40;;;;;;;1.63;44.52;100677.11;222441;1271;23049;-71
2022/03/22 01:35:35;;;;;;;41.40;21.30;;;;;;;1.61;44.87;100678.45;222530;1270;24342;-71
2022/03/22 01:40:54;;;;;;;41.40;20.90;;;;;;;1.57;45.31;100679.52;222498;1270;24179;-71
2022/03/22 01:46:00;;;;;;;42.70;21.00;;;;;;;1.48;45.40;100681.77;222696;1270;22545;-71
2022/03/22 01:51:02;;;;;;;43.00;20.70;;;;;;;1.34;45.49;100681.64;222587;1270;22518;-71
2022/03/22 01:56:07;;;;;;;41.00;19.80;;;;;;;1.19;45.50;100683.58;222643;1270;22513;-71
2022/03/22 02:06:33;;;;;;;39.20;19.70;;;;;;;0.92;45.72;100676.63;222421;1270;23166;-72
2022/03/22 02:11:38;;;;;;;42.00;21.30;;;;;;;0.83;46.06;100673.55;222939;1269;22617;-71
2022/03/22 02:16:40;;;;;;;45.10;22.10;;;;;;;0.78;46.09;100672.27;222502;1270;22562;-70
2022/03/22 02:21:43;;;;;;;42.30;20.80;;;;;;;0.74;46.31;100671.66;222616;1269;23325;-70
2022/03/22 02:26:45;;;;;;;39.10;20.70;;;;;;;0.72;46.47;100675.55;222551;1270;22974;-71
2022/03/22 02:31:50;;;;;;;45.00;21.50;;;;;;;0.70;46.28;100677.21;222465;1269;23292;-71
2022/03/22 02:37:05;;;;;;;44.90;22.30;;;;;;;0.63;46.48;100676.96;222612;1269;22569;-71
2022/03/22 02:42:29;;;;;;;46.60;20.90;;;;;;;0.53;46.76;100671.04;222508;1270;22569;-71
2022/03/22 02:47:31;;;;;;;41.40;19.80;;;;;;;0.46;46.82;100667.11;222491;1269;25312;-71
2022/03/22 02:52:33;;;;;;;41.10;20.00;;;;;;;0.44;47.23;100668.61;222447;1270;22633;-71
2022/03/22 02:57:37;;;;;;;41.50;20.20;;;;;;;0.43;47.32;100668.14;222299;1270;25297;-71
2022/03/22 03:03:08;;;;;;;;;;;;;;;;;;;;;
2022/03/22 03:08:13;;;;;;;37.40;19.10;;;;;;;0.46;47.84;100670.98;222567;1268;22571;-71
2022/03/22 03:13:15;;;;;;;43.30;21.10;;;;;;;0.43;47.73;100668.67;222566;1269;25343;-71
2022/03/22 03:18:27;;;;;;;42.20;21.90;;;;;;;0.40;48.05;100673.80;222638;1269;23810;-71
2022/03/22 03:23:51;;;;;;;45.80;22.00;;;;;;;0.31;48.26;100677.58;222418;1270;24222;-70
2022/03/22 03:29:09;;;;;;;44.60;21.00;;;;;;;0.26;48.86;100681.30;222260;1270;22575;-71
2022/03/22 03:34:20;;;;;;;44.70;22.50;;;;;;;0.24;48.79;100682.99;222346;1270;22525;-71
2022/03/22 03:39:37;;;;;;;48.70;23.40;;;;;;;0.14;49.06;100685.81;222460;1268;22659;-71
2022/03/22 03:50:12;;;;;;;48.20;23.50;;;;;;;-0.11;49.24;100689.29;220946;1270;22561;-71
2022/03/22 03:55:15;;;;;;;40.10;19.50;;;;;;;-0.25;49.48;100683.44;221075;1270;22526;-71
2022/03/22 04:00:32;;;;;;;;;;;;;;;;;;;;;
2022/03/22 04:06:15;;;;;;;43.70;20.20;;;;;;;-0.47;49.91;100690.23;222712;1270;23460;-70
2022/03/22 04:11:21;;;;;;;41.00;21.70;;;;;;;-0.55;50.10;100696.54;222626;1268;24284;-71
2022/03/22 04:16:24;;;;;;;49.00;21.80;;;;;;;-0.61;50.29;100698.52;222729;1268;23837;-71
2022/03/22 04:21:29;;;;;;;46.50;22.40;;;;;;;-0.68;50.27;100703.96;222521;1271;22801;-71
2022/03/22 04:26:36;;;;;;;43.20;23.30;;;;;;;-0.76;50.44;100704.63;222497;1269;24291;-71
2022/03/22 04:37:01;;;;;;;61.60;27.30;;;;;;;-0.85;50.71;100704.86;222719;1268;23033;-71
2022/03/22 04:42:05;;;;;;;55.20;25.30;;;;;;;-0.89;50.83;100707.21;222883;1271;24919;-71
2022/03/22 04:47:07;;;;;;;54.60;26.30;;;;;;;-0.90;50.77;100712.06;222329;1271;22507;-71
2022/03/22 04:57:31;;;;;;;61.70;28.00;;;;;;;-0.97;51.40;100716.68;222562;1269;24950;-71
2022/03/22 05:02:34;;;;;;;66.20;27.70;;;;;;;-1.02;51.69;100716.52;222569;1271;22579;-71
2022/03/22 05:07:37;;;;;;;56.00;25.70;;;;;;;-1.05;51.75;100724.54;222521;1269;22620;-71
2022/03/22 05:12:42;;;;;;;53.20;25.80;;;;;;;-1.05;52.24;100724.54;222686;1270;22617;-71
2022/03/22 05:17:47;;;;;;;50.30;24.20;;;;;;;-1.01;52.41;100724.87;222588;1268;24646;-71
2022/03/22 05:22:51;;;;;;;50.70;23.40;;;;;;;-0.95;52.49;100726.88;222708;1269;24241;-71
2022/03/22 05:27:53;;;;;;;48.20;24.20;;;;;;;-0.88;52.32;100731.02;222867;1269;22532;-71
2022/03/22 05:32:59;;;;;;;48.90;23.80;;;;;;;-0.79;52.32;100731.28;222633;1269;22552;-71
2022/03/22 05:38:02;;;;;;;49.60;25.00;;;;;;;-0.65;52.50;100731.04;222661;1270;22582;-71
2022/03/22 05:43:06;;;;;;;61.50;27.80;;;;;;;-0.46;52.58;100734.36;222499;1270;23831;-71
2022/03/22 05:48:09;;;;;;;59.50;29.20;;;;;;;-0.23;52.35;100734.87;222590;1270;22683;-70
2022/03/22 05:53:12;;;;;;;64.90;29.80;;;;;;;-0.01;52.21;100740.06;222620;1270;23846;-70
2022/03/22 05:58:15;;;;;;;64.30;31.30;;;;;;;0.20;52.07;100739.06;222599;1270;22581;-70
2022/03/22 06:03:17;;;;;;;54.40;28.60;;;;;;;0.41;51.72;100742.31;222547;1269;23800;-70
2022/03/22 06:08:20;;;;;;;61.80;30.60;;;;;;;0.58;51.55;100744.52;222459;1268;22713;-71
2022/03/22 06:13:22;;;;;;;56.30;29.00;;;;;;;0.73;51.47;100751.59;222579;1269;23832;-71
2022/03/22 06:18:25;;;;;;;53.10;29.30;;;;;;;0.91;52.57;100754.84;222508;1269;23843;-71
2022/03/22 06:23:27;;;;;;;66.50;34.00;;;;;;;1.16;53.76;100753.27;222611;1270;22598;-71
2022/03/22 06:28:29;;;;;;;72.30;34.90;;;;;;;1.36;53.87;100753.06;222497;1270;22522;-71
2022/03/22 06:33:33;;;;;;;68.30;34.50;;;;;;;1.60;53.52;100760.45;222552;1269;22685;-71
2022/03/22 06:38:36;;;;;;;67.10;34.30;;;;;;;1.84;53.09;100755.32;222593;1270;23302;-70
2022/03/22 06:43:52;;;;;;;59.60;30.20;;;;;;;2.12;53.13;100755.90;223383;1269;25329;-71
2022/03/22 06:49:01;;;;;;;56.90;31.10;;;;;;;2.38;52.83;100756.05;222787;1271;22489;-70
2022/03/22 06:54:04;;;;;;;64.80;33.90;;;;;;;2.66;52.65;100758.44;221326;1270;22475;-70
2022/03/22 06:59:06;;;;;;;63.20;32.60;;;;;;;2.93;52.46;100763.23;222914;1271;22746;-71
2022/03/22 07:04:09;;;;;;;66.30;32.00;;;;;;;3.24;51.78;100762.08;223179;1270;23530;-71
2022/03/22 07:09:15;;;;;;;58.50;31.60;;;;;;;3.53;51.16;100763.41;222939;1270;22514;-71
2022/03/22 07:14:23;;;;;;;57.10;30.50;;;;;;;3.88;50.49;100760.65;223006;1271;22532;-72
2022/03/22 07:19:25;;;;;;;56.10;30.30;;;;;;;4.25;49.90;100767.23;222977;1270;22682;-71
2022/03/22 07:24:39;;;;;;;50.90;28.00;;;;;;;4.56;49.35;100765.98;222934;1269;196854;-73
2022/03/22 07:29:44;;;;;;;58.80;29.60;;;;;;;4.88;49.04;100769.45;223000;1270;25416;-72
2022/03/22 07:35:00;;;;;;;60.30;32.00;;;;;;;5.23;48.45;100768.31;222841;1271;22572;-73
2022/03/22 07:40:05;;;;;;;55.40;31.40;;;;;;;5.59;47.97;100773.61;222858;1271;25370;-72
2022/03/22 07:45:10;;;;;;;58.80;33.30;;;;;;;5.89;47.74;100773.73;223268;1269;25194;-71
2022/03/22 07:55:36;;;;;;;48.30;29.70;;;;;;;6.55;47.09;100774.39;223134;1270;25330;-71
2022/03/22 08:00:41;;;;;;;53.00;29.20;;;;;;;6.89;46.08;100777.77;222976;1270;22579;-71
2022/03/22 08:05:46;;;;;;;44.40;26.30;;;;;;;7.20;45.66;100777.55;223278;1269;25527;-72
2022/03/22 08:10:48;;;;;;;49.90;27.60;;;;;;;7.52;45.02;100770.77;222993;1270;22552;-72
2022/03/22 08:15:58;;;;;;;41.70;24.10;;;;;;;7.83;44.62;100775.40;222881;1270;23129;-72
2022/03/22 08:21:01;;;;;;;39.40;25.30;;;;;;;8.17;44.22;100771.21;222903;1270;22598;-72
2022/03/22 08:26:06;;;;;;;35.40;21.50;;;;;;;8.50;43.56;100768.18;223292;1270;23979;-73
2022/03/22 08:31:10;;;;;;;36.70;21.70;;;;;;;8.78;42.85;100763.54;223253;1270;24219;-71
2022/03/22 08:36:13;;;;;;;34.40;22.40;;;;;;;9.06;42.48;100759.59;222791;1271;22669;-72
2022/03/22 08:41:15;;;;;;;35.50;21.50;;;;;;;9.32;42.16;100765.30;223009;1270;25844;-72
2022/03/22 08:46:24;;;;;;;33.40;20.10;;;;;;;9.50;41.88;100764.19;222875;1270;22565;-72
2022/03/22 08:51:27;;;;;;;31.40;19.90;;;;;;;9.72;41.27;100769.02;222945;1271;22607;-72
2022/03/22 08:56:41;;;;;;;27.60;18.90;;;;;;;9.91;41.00;100764.50;223024;1271;22546;-72
2022/03/22 09:01:44;;;;;;;29.50;18.70;;;;;;;10.11;40.59;100766.99;223196;1271;24127;-72
2022/03/22 09:06:50;;;;;;;30.00;19.40;;;;;;;10.33;39.85;100756.59;223402;1270;22700;-72
2022/03/22 09:12:07;;;;;;;30.60;19.20;;;;;;;10.57;39.24;100758.67;223284;1270;22620;-72
2022/03/22 09:17:13;;;;;;;30.30;19.30;;;;;;;10.72;38.78;100746.67;223223;1269;23029;-72
2022/03/22 09:22:31;;;;;;;30.50;18.70;;;;;;;10.94;38.16;100748.02;223257;1268;22666;-72
2022/03/22 09:27:34;;;;;;;27.70;18.20;;;;;;;11.16;37.91;100739.41;223102;1270;25313;-72
2022/03/22 09:32:37;;;;;;;24.10;16.10;;;;;;;11.33;37.45;100736.02;223434;1269;22707;-72
2022/03/22 09:37:43;;;;;;;25.30;17.20;;;;;;;11.44;37.13;100726.16;223435;1270;22604;-71
2022/03/22 09:42:49;;;;;;;22.50;15.80;;;;;;;11.57;36.61;100727.91;223566;1270;23713;-72
2022/03/22 09:47:56;;;;;;;24.30;15.80;;;;;;;11.72;36.29;100725.69;223300;1270;22698;-72
2022/03/22 09:52:59;;;;;;;22.00;14.80;;;;;;;11.94;36.19;100722.23;223315;1269;25310;-71
2022/03/22 09:58:01;;;;;;;27.50;16.10;;;;;;;12.04;35.44;100723.80;223136;1270;25310;-72
2022/03/22 10:03:24;;;;;;;21.00;14.90;;;;;;;12.18;35.22;100720.31;223463;1269;25261;-72
2022/03/22 10:08:54;;;;;;;18.00;13.10;;;;;;;12.35;34.76;100713.95;223567;1270;22559;-73
2022/03/22 10:14:05;;;;;;;19.20;12.40;;;;;;;12.56;34.33;100711.27;222983;1270;22589;-71
2022/03/22 10:19:19;;;;;;;19.20;13.30;;;;;;;12.75;33.55;100705.95;222996;1270;22571;-70
2022/03/22 10:24:21;;;;;;;17.60;13.30;;;;;;;12.89;33.60;100705.10;222326;1270;22540;-69
2022/03/22 10:29:29;;;;;;;26.00;12.70;;;;;;;13.05;33.25;100702.98;221426;1270;22659;-69
2022/03/22 10:34:31;;;;;;;18.90;12.60;;;;;;;13.19;32.99;100705.35;221349;1270;22484;-72
2022/03/22 10:39:41;;;;;;;19.80;13.60;;;;;;;13.27;32.80;100704.05;221317;1270;22675;-68
2022/03/22 10:44:44;;;;;;;19.40;13.80;;;;;;;13.45;32.86;100701.77;221752;1270;22526;-69
2022/03/22 10:49:47;;;;;;;17.50;13.20;;;;;;;13.63;32.61;100695.04;221369;1270;22529;-68
2022/03/22 10:55:19;;;;;;;19.70;14.00;;;;;;;13.78;32.46;100691.17;221423;1270;22522;-69
2022/03/22 11:00:24;;;;;;;19.80;13.80;;;;;;;13.92;32.26;100686.48;221291;1270;24202;-68
2022/03/22 11:05:44;;;;;;;18.70;12.80;;;;;;;14.06;32.09;100682.17;221070;1270;24287;-69
2022/03/22 11:10:48;;;;;;;18.50;13.40;;;;;;;14.23;32.07;100675.70;221414;1270;24311;-68
2022/03/22 11:16:02;;;;;;;18.60;14.00;;;;;;;14.40;32.06;100669.58;222090;1269;22464;-68
2022/03/22 11:21:18;;;;;;;20.10;13.80;;;;;;;14.55;31.75;100664.20;221929;1269;22572;-69
2022/03/22 11:26:22;;;;;;;18.40;12.70;;;;;;;14.72;31.71;100656.58;222170;1270;24355;-69
2022/03/22 11:31:34;;;;;;;20.20;13.30;;;;;;;14.83;31.22;100649.67;221573;1270;24697;-69
2022/03/22 11:36:53;;;;;;;18.80;14.00;;;;;;;14.89;31.04;100646.00;221549;1270;24262;-69
2022/03/22 11:47:27;;;;;;;20.60;14.40;;;;;;;15.04;30.59;100639.66;221253;1270;22685;-68
2022/03/22 11:52:33;;;;;;;21.40;14.90;;;;;;;15.13;30.57;100635.01;221380;1269;24199;-68
2022/03/22 11:57:58;;;;;;;21.30;15.30;;;;;;;15.19;30.37;100625.39;221093;1270;22571;-69
2022/03/22 12:03:18;;;;;;;22.60;14.70;;;;;;;15.27;30.14;100619.84;221597;1270;22553;-68
2022/03/22 12:08:34;;;;;;;19.50;13.70;;;;;;;15.31;29.84;100613.37;221593;1268;25366;-68
2022/03/22 12:13:49;;;;;;;21.60;14.30;;;;;;;15.33;29.34;100606.73;221519;1270;22560;-70
2022/03/22 12:18:59;;;;;;;19.70;14.00;;;;;;;15.36;29.67;100600.55;221441;1270;24272;-69
2022/03/22 12:24:04;;;;;;;22.20;14.20;;;;;;;15.47;29.48;100600.63;221616;1270;22571;-70
2022/03/22 12:29:06;;;;;;;25.00;14.20;;;;;;;15.57;29.52;100591.98;223931;1269;22674;-68
2022/03/22 12:34:09;;;;;;;21.00;13.30;;;;;;;15.65;29.40;100584.66;221432;1270;25086;-69
2022/03/22 12:39:12;;;;;;;17.70;13.50;;;;;;;15.74;29.25;100581.33;221348;1270;22550;-70
2022/03/22 12:44:14;;;;;;;18.70;13.20;;;;;;;15.74;28.98;100580.40;221318;1270;24205;-69
2022/03/22 12:49:17;;;;;;;21.40;13.90;;;;;;;15.77;28.94;100569.25;221206;1268;22561;-69
2022/03/22 12:54:21;;;;;;;15.60;12.10;;;;;;;15.81;28.80;100567.75;221323;1270;22584;-68
2022/03/22 12:59:24;;;;;;;17.10;11.40;;;;;;;15.83;28.67;100562.44;222963;1269;22588;-68
2022/03/22 13:04:29;;;;;;;17.20;12.50;;;;;;;15.87;28.57;100558.58;221316;1271;22535;-67
2022/03/22 13:15:06;;;;;;;19.60;13.00;;;;;;;16.04;28.36;100553.17;221522;1271;22541;-70
2022/03/22 13:20:24;;;;;;;17.30;12.30;;;;;;;16.05;28.18;100546.13;221802;1270;22548;-70
2022/03/22 13:25:34;;;;;;;19.90;14.20;;;;;;;16.04;28.16;100537.39;223002;1270;22498;-69
2022/03/22 13:30:39;;;;;;;21.00;13.10;;;;;;;16.05;28.00;100532.02;221307;1269;23795;-68
2022/03/22 13:35:56;;;;;;;16.80;11.80;;;;;;;16.10;28.10;100531.61;221398;1270;25410;-69
2022/03/22 13:41:12;;;;;;;15.50;11.60;;;;;;;16.14;28.07;100526.27;221703;1271;22548;-69
2022/03/22 13:46:50;;;;;;;18.70;11.60;;;;;;;16.22;27.99;100526.31;221310;1270;22495;-68
2022/03/22 13:52:28;;;;;;;17.20;11.60;;;;;;;16.27;27.83;100523.24;221629;1270;25100;-69
2022/03/22 13:57:36;;;;;;;17.80;12.10;;;;;;;16.34;27.92;100523.95;221643;1271;22936;-69
2022/03/22 14:02:39;;;;;;;18.10;12.00;;;;;;;16.38;27.79;100522.19;222635;1270;23269;-68
2022/03/22 14:07:56;;;;;;;19.10;12.00;;;;;;;16.39;27.55;100515.94;221427;1270;22535;-68
2022/03/22 14:12:59;;;;;;;16.30;11.30;;;;;;;16.42;27.69;100509.54;223228;1271;22540;-69
2022/03/22 14:18:04;;;;;;;16.40;11.10;;;;;;;16.45;27.79;100504.70;221346;1271;22663;-68
2022/03/22 14:23:08;;;;;;;17.00;11.50;;;;;;;16.45;27.73;100501.08;221235;1271;23716;-68
2022/03/22 14:28:13;;;;;;;15.40;11.00;;;;;;;16.42;27.56;100496.23;221748;1270;22589;-69
2022/03/22 14:33:17;;;;;;;15.50;10.40;;;;;;;16.40;27.40;100490.67;221316;1271;24205;-69
2022/03/22 14:38:26;;;;;;;15.50;11.00;;;;;;;16.39;27.41;100484.31;221299;1271;23011;-69
2022/03/22 14:43:30;;;;;;;17.20;11.10;;;;;;;16.37;27.36;100480.48;221208;1271;23854;-68
2022/03/22 14:48:39;;;;;;;14.20;10.20;;;;;;;16.38;27.55;100474.80;221256;1270;24189;-69
2022/03/22 14:54:04;;;;;;;15.10;10.90;;;;;;;16.36;27.30;100470.59;221349;1269;22740;-69
2022/03/22 14:59:10;;;;;;;16.10;10.40;;;;;;;16.33;27.20;100467.22;221511;1271;24220;-69
2022/03/22 15:04:15;;;;;;;15.40;10.40;;;;;;;16.29;27.00;100458.17;221135;1271;24181;-69
2022/03/22 15:09:39;;;;;;;15.70;10.40;;;;;;;16.25;26.86;100454.27;221154;1271;22872;-68
2022/03/22 15:14:42;;;;;;;15.80;10.40;;;;;;;16.22;27.14;100446.92;221211;1271;24347;-69
2022/03/22 15:19:47;;;;;;;13.10;9.30;;;;;;;16.20;26.94;100442.77;221487;1270;23847;-69
2022/03/22 15:25:14;;;;;;;14.80;8.80;;;;;;;16.17;27.05;100439.63;221124;1269;22564;-69
2022/03/22 15:30:23;;;;;;;12.80;8.40;;;;;;;16.15;27.05;100439.86;221057;1270;23014;-69
2022/03/22 15:35:32;;;;;;;11.90;8.20;;;;;;;16.13;26.88;100432.86;221487;1270;22484;-69
2022/03/22 15:40:45;;;;;;;14.00;8.60;;;;;;;16.08;27.07;100428.79;221115;1270;22636;-69
2022/03/22 15:45:48;;;;;;;10.70;8.10;;;;;;;15.99;27.24;100429.80;221168;1270;22563;-69
2022/03/22 15:50:56;;;;;;;11.30;7.90;;;;;;;15.87;27.21;100425.09;221676;1270;23919;-69
2022/03/22 15:56:00;;;;;;;13.70;7.60;;;;;;;15.70;27.18;100422.54;221228;1270;22607;-69
2022/03/22 16:01:06;;;;;;;9.80;7.90;;;;;;;15.53;27.22;100419.42;221299;1270;22538;-69
2022/03/22 16:06:35;;;;;;;11.00;7.80;;;;;;;15.32;27.17;100415.56;221219;1270;23868;-67
2022/03/22 16:11:38;;;;;;;14.90;8.90;;;;;;;15.13;27.15;100418.06;221594;1270;25368;-68
2022/03/22 16:16:48;;;;;;;12.20;7.80;;;;;;;14.92;27.34;100413.89;221320;1270;22595;-69
2022/03/22 16:21:51;;;;;;;12.00;7.90;;;;;;;14.72;27.57;100416.30;221270;1270;22701;-69
2022/03/22 16:26:54;;;;;;;14.30;8.50;;;;;;;14.48;27.88;100416.02;221176;1270;22557;-69
2022/03/22 16:36:45;;;;;;;14.90;8.90;;;;;;;14.19;27.98;100408.27;221271;1270;22863;-68
2022/03/22 16:38:09;;;;;;;14.80;9.00;;;;;;;13.87;28.42;100403.83;221368;1270;24379;-69
2022/03/22 16:43:18;;;;;;;11.70;8.80;;;;;;;13.61;28.77;100408.30;221235;1270;22519;-68
2022/03/22 16:48:27;;;;;;;16.10;10.40;;;;;;;13.33;28.88;100408.04;221022;1270;22554;-69
2022/03/22 16:53:31;;;;;;;16.50;10.90;;;;;;;13.07;29.23;100405.27;221767;1270;22518;-69
2022/03/22 16:58:36;;;;;;;16.50;11.10;;;;;;;12.83;29.60;100403.59;221422;1269;22796;-68
2022/03/22 17:03:41;;;;;;;14.00;10.40;;;;;;;12.56;30.05;100401.52;221133;1270;25372;-68
2022/03/22 17:08:46;;;;;;;15.00;10.10;;;;;;;12.25;30.08;100410.81;221414;1270;22595;-70
2022/03/22 17:14:05;;;;;;;;;;;;;;;11.92;30.40;100411.59;221158;1270;22628;-69
2022/03/22 17:19:19;;;;;;;16.80;11.00;;;;;;;11.60;30.79;100411.86;221131;1270;25371;-70
2022/03/22 17:24:34;;;;;;;36.10;16.20;;;;;;;11.33;31.04;100416.15;222665;1269;25398;-68
2022/03/22 17:29:44;;;;;;;35.20;15.00;;;;;;;11.09;31.18;100414.84;221312;1270;24250;-68
2022/03/22 17:35:07;;;;;;;28.60;14.50;;;;;;;10.86;31.46;100407.98;221635;1269;22604;-68
2022/03/22 17:40:11;;;;;;;26.10;16.40;;;;;;;10.65;31.88;100412.05;220994;1270;24464;-68
2022/03/22 17:45:44;;;;;;;53.40;27.80;;;;;;;10.43;31.75;100407.89;221159;1270;22604;-69
2022/03/22 17:50:49;;;;;;;;;;;;;;;10.27;31.93;100408.52;221286;1270;22510;-69
2022/03/22 17:55:54;;;;;;;53.50;28.00;;;;;;;10.14;31.85;100412.83;221759;1270;22817;-70
2022/03/22 18:01:12;;;;;;;57.40;30.40;;;;;;;10.01;31.99;100414.99;220932;1270;24284;-69
2022/03/22 18:06:26;;;;;;;50.80;28.10;;;;;;;9.91;32.27;100415.36;221408;1270;22537;-68
2022/03/22 18:11:55;;;;;;;51.40;29.80;;;;;;;9.83;32.27;100411.02;221283;1270;23865;-68
2022/03/22 18:17:24;;;;;;;;;;;;;;;;;;;;;
2022/03/22 18:22:43;;;;;;;58.00;30.70;;;;;;;9.61;33.10;100413.64;221427;1270;23471;-69
2022/03/22 18:27:47;;;;;;;58.00;33.80;;;;;;;9.52;33.00;100413.44;221347;1270;25322;-70
2022/03/22 18:32:58;;;;;;;59.10;33.00;;;;;;;9.45;32.98;100410.27;222810;1270;26019;-69
2022/03/22 18:38:01;;;;;;;62.90;32.90;;;;;;;9.36;33.18;100413.70;221360;1269;22474;-70
2022/03/22 18:43:06;;;;;;;72.50;35.00;;;;;;;9.20;33.93;100413.03;221042;1268;22611;-69
2022/03/22 18:48:15;;;;;;;67.30;34.70;;;;;;;8.94;34.41;100416.60;221656;1269;25351;-69
2022/03/22 18:53:37;;;;;;;66.40;34.80;;;;;;;8.66;34.73;100421.11;221149;1270;25392;-69
2022/03/22 18:58:46;;;;;;;69.50;32.70;;;;;;;8.37;35.53;100417.92;221278;1271;22947;-69
2022/03/22 19:03:54;;;;;;;61.70;31.10;;;;;;;8.09;36.38;100426.38;221277;1269;25400;-69
2022/03/22 19:09:24;;;;;;;70.00;31.20;;;;;;;7.84;37.13;100426.27;221169;1271;22564;-68
2022/03/22 19:14:42;;;;;;;56.80;30.80;;;;;;;7.61;37.50;100432.78;221098;1270;23115;-69
2022/03/22 19:20:13;;;;;;;58.30;30.90;;;;;;;7.40;37.82;100439.39;221138;1270;23061;-69
2022/03/22 19:25:16;;;;;;;79.70;41.80;;;;;;;7.32;37.66;100443.94;217360;1270;5354941;-69
2022/03/22 19:30:19;;;;;;;89.20;44.90;;;;;;;7.32;37.44;100439.83;221169;1270;23803;-69
2022/03/22 19:35:33;;;;;;;103.20;52.90;;;;;;;7.30;37.76;100436.86;221053;1270;24621;-68
2022/03/22 19:41:03;;;;;;;104.80;53.90;;;;;;;7.28;37.81;100437.63;221358;1270;24433;-69
2022/03/22 19:46:18;;;;;;;121.80;59.30;;;;;;;7.23;38.10;100436.42;221166;1270;22801;-68
2022/03/22 19:51:24;;;;;;;109.70;56.80;;;;;;;7.18;38.26;100433.48;221346;1270;22555;-69
2022/03/22 19:56:34;;;;;;;88.60;45.80;;;;;;;7.17;38.10;100434.41;221132;1270;23887;-70
2022/03/22 20:01:36;;;;;;;84.00;44.30;;;;;;;7.16;38.03;100429.13;221193;1270;22637;-69
2022/03/22 20:06:39;;;;;;;85.50;42.60;;;;;;;7.15;38.38;100433.82;221287;1269;22487;-69
2022/03/22 20:12:27;;;;;;;;;;;;;;;;;;;;;
2022/03/22 20:18:06;;;;;;;75.40;37.60;;;;;;;7.02;38.81;100429.46;221304;1270;25405;-69
2022/03/22 20:23:15;;;;;;;71.90;36.90;;;;;;;6.94;38.78;100423.25;221311;1270;25377;-69
2022/03/22 20:28:49;;;;;;;71.70;35.90;;;;;;;6.84;39.05;100423.21;221172;1270;22483;-69
2022/03/22 20:33:51;;;;;;;72.10;38.30;;;;;;;6.76;39.40;100419.73;221027;1270;22482;-69
2022/03/22 20:38:54;;;;;;;79.00;41.50;;;;;;;6.69;39.27;100419.70;221114;1269;22831;-69
2022/03/22 20:43:57;;;;;;;83.10;41.40;;;;;;;6.59;39.22;100412.50;221259;1269;22575;-69
2022/03/22 20:48:59;;;;;;;78.40;40.60;;;;;;;6.48;39.44;100409.98;221197;1270;24415;-68
2022/03/22 20:54:14;;;;;;;74.30;39.00;;;;;;;6.40;39.91;100408.73;220974;1271;22713;-69
2022/03/22 20:59:19;;;;;;;83.80;42.10;;;;;;;6.31;39.94;100406.23;221190;1270;25441;-69
2022/03/22 21:04:42;;;;;;;79.40;41.80;;;;;;;6.24;40.13;100411.22;220843;1271;22815;-70
2022/03/22 21:09:44;;;;;;;88.60;44.80;;;;;;;6.18;40.58;100407.02;221181;1270;22561;-69
2022/03/22 21:14:47;;;;;;;99.90;47.30;;;;;;;6.15;41.05;100399.67;220967;1270;22560;-69
2022/03/22 21:19:50;;;;;;;97.10;46.30;;;;;;;6.14;41.14;100398.11;221389;1269;24364;-69
2022/03/22 21:24:52;;;;;;;84.60;43.30;;;;;;;6.09;41.18;100396.88;220938;1270;22522;-69
2022/03/22 21:29:54;;;;;;;92.60;45.70;;;;;;;6.00;41.51;100397.55;221220;1269;23786;-69
2022/03/22 21:34:56;;;;;;;99.10;48.60;;;;;;;5.92;41.77;100390.06;220999;1270;24900;-70
2022/03/22 21:39:58;;;;;;;103.50;49.20;;;;;;;5.81;42.37;100384.59;221268;1270;22612;-70
2022/03/22 21:45:01;;;;;;;94.60;46.80;;;;;;;5.66;42.67;100380.24;221124;1270;22916;-69
2022/03/22 21:50:12;;;;;;;90.10;46.60;;;;;;;5.48;42.73;100375.98;221205;1270;22584;-70
2022/03/22 21:55:18;;;;;;;83.70;42.20;;;;;;;5.29;42.99;100375.02;221539;1270;22862;-68
2022/03/22 22:00:20;;;;;;;79.90;39.40;;;;;;;5.05;43.33;100370.45;221562;1270;22686;-68
2022/03/22 22:05:26;;;;;;;87.50;40.10;;;;;;;4.93;43.69;100374.11;221228;1270;25325;-69
2022/03/22 22:10:32;;;;;;;79.50;37.90;;;;;;;4.81;43.94;100370.27;221228;1268;25861;-69
2022/03/22 22:15:40;;;;;;;69.40;35.10;;;;;;;4.75;44.20;100365.77;221313;1269;22470;-69
2022/03/22 22:20:42;;;;;;;68.00;35.00;;;;;;;4.72;44.30;100361.20;221381;1270;24319;-69
2022/03/22 22:25:52;;;;;;;73.10;33.50;;;;;;;4.72;44.61;100357.08;221120;1269;24206;-69
2022/03/22 22:30:55;;;;;;;61.80;32.10;;;;;;;4.80;44.86;100353.54;220905;1269;22542;-68
2022/03/22 22:35:57;;;;;;;59.50;31.00;;;;;;;4.89;44.81;100347.36;221229;1270;25396;-69
2022/03/22 22:41:00;;;;;;;63.10;29.10;;;;;;;4.92;44.85;100346.60;223026;1269;25236;-68
2022/03/22 22:46:02;;;;;;;56.00;28.60;;;;;;;4.89;44.97;100344.39;221075;1270;25415;-70
2022/03/22 22:51:04;;;;;;;55.20;27.50;;;;;;;4.81;45.09;100339.81;220990;1269;24432;-69
2022/03/22 22:56:12;;;;;;;56.20;27.50;;;;;;;4.68;45.21;100333.90;221006;1269;22728;-69
2022/03/22 23:01:17;;;;;;;56.00;26.90;;;;;;;4.53;45.43;100331.59;221290;1269;24163;-68
2022/03/22 23:11:59;;;;;;;63.10;31.60;;;;;;;4.22;46.07;100329.73;221149;1270;24170;-70
2022/03/22 23:17:07;;;;;;;64.40;31.50;;;;;;;4.11;46.27;100324.04;221340;1270;22525;-69
2022/03/22 23:22:19;;;;;;;63.80;32.50;;;;;;;4.01;46.51;100324.77;221113;1270;25313;-69
2022/03/22 23:27:22;;;;;;;64.00;32.10;;;;;;;3.93;46.59;100324.07;221298;1269;25212;-68
2022/03/22 23:32:27;;;;;;;61.90;30.80;;;;;;;3.82;46.63;100320.30;221093;1269;22584;-68
2022/03/22 23:37:29;;;;;;;66.80;31.10;;;;;;;3.72;46.86;100317.04;221153;1270;22583;-69
2022/03/22 23:42:32;;;;;;;59.50;32.50;;;;;;;3.62;47.20;100316.39;220995;1271;22553;-69
2022/03/22 23:47:38;;;;;;;73.30;36.60;;;;;;;3.52;47.27;100316.59;220999;1271;22612;-69
2022/03/22 23:52:41;;;;;;;106.90;48.90;;;;;;;3.40;47.99;100317.23;221224;1270;24280;-68
2022/03/22 23:57:48;;;;;;;111.40;51.50;;;;;;;3.21;48.96;100315.19;221281;1270;23355;-69
